sensor_id;sensor_type;location;lat;lon;timestamp;temperature;humidity
5792;DHT22;2922;53.482;10.006;2024-01-06T02:16:02;0.20;99.90
5792;DHT22;2922;53.482;10.006;2024-01-06T02:18:27;0.20;99.90
5792;DHT22;2922;53.482;10.006;2024-01-06T02:20:57;0.20;99.90
5792;DHT22;2922;53.482;10.006;2024-01-06T02:23:23;0.20;99.90
5792;DHT22;2922;53.482;10.006;2024-01-06T02:25:49;0.30;99.90
5792;DHT22;2922;53.482;10.006;2024-01-06T02:28:14;0.20;99.90
5792;DHT22;2922;53.482;10.006;2024-01-06T02:30:40;0.20;99.90
5792;DHT22;2922;53.482;10.006;2024-01-06T02:33:05;0.20;99.90
5792;DHT22;2922;53.482;10.006;2024-01-06T02:35:31;0.30;99.90
5792;DHT22;2922;53.482;10.006;2024-01-06T02:37:56;0.30;99.90
5792;DHT22;2922;53.482;10.006;2024-01-06T02:40:22;0.30;99.90
5792;DHT22;2922;53.482;10.006;2024-01-06T02:42:47;0.20;99.90
5792;DHT22;2922;53.482;10.006;2024-01-06T02:45:13;0.20;99.90
5792;DHT22;2922;53.482;10.006;2024-01-06T02:47:38;0.20;99.90
5792;DHT22;2922;53.482;10.006;2024-01-06T02:50:05;0.20;99.90
5792;DHT22;2922;53.482;10.006;2024-01-06T02:52:30;0.20;99.90
5792;DHT22;2922;53.482;10.006;2024-01-06T02:54:56;0.20;99.90
5792;DHT22;2922;53.482;10.006;2024-01-06T02:57:22;0.20;99.90
5792;DHT22;2922;53.482;10.006;2024-01-06T02:59:47;0.20;99.90
5792;DHT22;2922;53.482;10.006;2024-01-06T03:02:13;0.20;99.90
5792;DHT22;2922;53.482;10.006;2024-01-06T03:04:38;0.20;99.90
5792;DHT22;2922;53.482;10.006;2024-01-06T03:07:04;0.20;99.90
5792;DHT22;2922;53.482;10.006;2024-01-06T03:09:29;0.20;99.90
5792;DHT22;2922;53.482;10.006;2024-01-06T03:11:55;0.20;99.90
5792;DHT22;2922;53.482;10.006;2024-01-06T03:14:21;0.20;99.90
5792;DHT22;2922;53.482;10.006;2024-01-06T03:16:46;0.20;99.90
5792;DHT22;2922;53.482;10.006;2024-01-06T03:19:12;0.20;99.90
5792;DHT22;2922;53.482;10.006;2024-01-06T03:21:38;0.20;99.90
5792;DHT22;2922;53.482;10.006;2024-01-06T03:24:04;0.20;99.90
5792;DHT22;2922;53.482;10.006;2024-01-06T03:26:30;0.20;99.90
5792;DHT22;2922;53.482;10.006;2024-01-06T03:28:56;0.10;99.90
5792;DHT22;2922;53.482;10.006;2024-01-06T03:31:21;0.10;99.90
5792;DHT22;2922;53.482;10.006;2024-01-06T03:33:48;0.10;99.90
5792;DHT22;2922;53.482;10.006;2024-01-06T03:36:13;0.10;99.90
5792;DHT22;2922;53.482;10.006;2024-01-06T03:38:42;0.20;99.90
5792;DHT22;2922;53.482;10.006;2024-01-06T03:41:08;0.10;99.90
5792;DHT22;2922;53.482;10.006;2024-01-06T03:43:33;0.10;99.90
5792;DHT22;2922;53.482;10.006;2024-01-06T03:45:59;0.10;99.90
5792;DHT22;2922;53.482;10.006;2024-01-06T03:48:25;0.10;99.90
5792;DHT22;2922;53.482;10.006;2024-01-06T03:50:51;0.10;99.90
5792;DHT22;2922;53.482;10.006;2024-01-06T03:53:17;0.00;99.90
5792;DHT22;2922;53.482;10.006;2024-01-06T03:55:42;0.00;99.90
5792;DHT22;2922;53.482;10.006;2024-01-06T03:58:08;0.00;99.90
5792;DHT22;2922;53.482;10.006;2024-01-06T04:00:34;0.00;99.90
5792;DHT22;2922;53.482;10.006;2024-01-06T04:02:59;0.00;99.90
5792;DHT22;2922;53.482;10.006;2024-01-06T04:05:25;0.00;99.90
5792;DHT22;2922;53.482;10.006;2024-01-06T04:07:51;0.00;99.90
5792;DHT22;2922;53.482;10.006;2024-01-06T04:10:16;0.00;99.90
5792;DHT22;2922;53.482;10.006;2024-01-06T04:12:42;0.00;99.90
5792;DHT22;2922;53.482;10.006;2024-01-06T04:15:08;-0.10;99.90
5792;DHT22;2922;53.482;10.006;2024-01-06T04:17:33;-0.10;99.90
5792;DHT22;2922;53.482;10.006;2024-01-06T04:19:59;0.00;99.90
5792;DHT22;2922;53.482;10.006;2024-01-06T04:22:24;0.00;99.90
5792;DHT22;2922;53.482;10.006;2024-01-06T04:24:50;0.00;99.90
5792;DHT22;2922;53.482;10.006;2024-01-06T04:27:16;-0.10;99.90
5792;DHT22;2922;53.482;10.006;2024-01-06T04:29:41;-0.10;99.90
5792;DHT22;2922;53.482;10.006;2024-01-06T04:32:07;0.00;99.90
5792;DHT22;2922;53.482;10.006;2024-01-06T04:34:33;-0.10;99.90
5792;DHT22;2922;53.482;10.006;2024-01-06T04:36:58;0.00;99.90
5792;DHT22;2922;53.482;10.006;2024-01-06T04:39:24;0.00;99.90
5792;DHT22;2922;53.482;10.006;2024-01-06T04:41:50;0.00;99.90
5792;DHT22;2922;53.482;10.006;2024-01-06T04:44:15;0.00;99.90
5792;DHT22;2922;53.482;10.006;2024-01-06T04:46:41;0.00;99.90
5792;DHT22;2922;53.482;10.006;2024-01-06T04:49:07;0.00;99.90
5792;DHT22;2922;53.482;10.006;2024-01-06T04:51:32;0.00;99.90
5792;DHT22;2922;53.482;10.006;2024-01-06T04:53:58;0.00;99.90
5792;DHT22;2922;53.482;10.006;2024-01-06T04:56:23;0.00;99.90
5792;DHT22;2922;53.482;10.006;2024-01-06T04:58:49;0.00;99.90
5792;DHT22;2922;53.482;10.006;2024-01-06T05:01:14;0.00;99.90
5792;DHT22;2922;53.482;10.006;2024-01-06T05:03:40;0.00;99.90
5792;DHT22;2922;53.482;10.006;2024-01-06T05:06:06;0.00;99.90
5792;DHT22;2922;53.482;10.006;2024-01-06T05:08:31;0.00;99.90
5792;DHT22;2922;53.482;10.006;2024-01-06T05:10:57;0.00;99.90
5792;DHT22;2922;53.482;10.006;2024-01-06T05:13:22;0.00;99.90
5792;DHT22;2922;53.482;10.006;2024-01-06T05:15:48;0.00;99.90
5792;DHT22;2922;53.482;10.006;2024-01-06T05:18:13;0.00;99.90
5792;DHT22;2922;53.482;10.006;2024-01-06T05:20:39;0.00;99.90
5792;DHT22;2922;53.482;10.006;2024-01-06T05:23:06;0.00;99.90
5792;DHT22;2922;53.482;10.006;2024-01-06T05:25:32;0.00;99.90
5792;DHT22;2922;53.482;10.006;2024-01-06T05:27:58;0.00;99.90
5792;DHT22;2922;53.482;10.006;2024-01-06T05:30:24;0.00;99.90
5792;DHT22;2922;53.482;10.006;2024-01-06T05:32:49;0.00;99.90
5792;DHT22;2922;53.482;10.006;2024-01-06T05:35:16;0.00;99.90
5792;DHT22;2922;53.482;10.006;2024-01-06T05:37:42;0.00;99.90
5792;DHT22;2922;53.482;10.006;2024-01-06T05:40:08;0.00;99.90
5792;DHT22;2922;53.482;10.006;2024-01-06T05:42:34;0.00;99.90
5792;DHT22;2922;53.482;10.006;2024-01-06T05:44:59;0.00;99.90
5792;DHT22;2922;53.482;10.006;2024-01-06T05:47:25;0.00;99.90
5792;DHT22;2922;53.482;10.006;2024-01-06T05:49:51;0.00;99.90
5792;DHT22;2922;53.482;10.006;2024-01-06T05:52:16;0.00;99.90
5792;DHT22;2922;53.482;10.006;2024-01-06T05:54:42;0.00;99.90
5792;DHT22;2922;53.482;10.006;2024-01-06T05:57:08;0.00;99.90
5792;DHT22;2922;53.482;10.006;2024-01-06T05:59:34;0.00;99.90
5792;DHT22;2922;53.482;10.006;2024-01-06T06:02:00;0.00;99.90
5792;DHT22;2922;53.482;10.006;2024-01-06T06:04:25;0.00;99.90
5792;DHT22;2922;53.482;10.006;2024-01-06T06:06:51;0.00;99.90
5792;DHT22;2922;53.482;10.006;2024-01-06T06:09:16;0.00;99.90
5792;DHT22;2922;53.482;10.006;2024-01-06T06:11:42;0.00;99.90
5792;DHT22;2922;53.482;10.006;2024-01-06T06:14:08;0.00;99.90
5792;DHT22;2922;53.482;10.006;2024-01-06T06:16:34;0.00;99.90
5792;DHT22;2922;53.482;10.006;2024-01-06T06:19:00;0.00;99.90
5792;DHT22;2922;53.482;10.006;2024-01-06T06:21:25;0.00;99.90
5792;DHT22;2922;53.482;10.006;2024-01-06T06:23:51;0.00;99.90
5792;DHT22;2922;53.482;10.006;2024-01-06T06:26:17;0.00;99.90
5792;DHT22;2922;53.482;10.006;2024-01-06T06:28:42;0.00;99.90
5792;DHT22;2922;53.482;10.006;2024-01-06T06:31:08;0.00;99.90
5792;DHT22;2922;53.482;10.006;2024-01-06T06:33:33;0.00;99.90
5792;DHT22;2922;53.482;10.006;2024-01-06T06:35:59;0.00;99.90
5792;DHT22;2922;53.482;10.006;2024-01-06T06:38:28;0.00;99.90
5792;DHT22;2922;53.482;10.006;2024-01-06T06:40:54;0.00;99.90
5792;DHT22;2922;53.482;10.006;2024-01-06T06:43:19;-0.10;99.90
5792;DHT22;2922;53.482;10.006;2024-01-06T06:45:45;-0.10;99.90
5792;DHT22;2922;53.482;10.006;2024-01-06T06:48:10;-0.10;99.90
5792;DHT22;2922;53.482;10.006;2024-01-06T06:50:36;-0.10;99.90
5792;DHT22;2922;53.482;10.006;2024-01-06T06:53:02;-0.10;99.90
5792;DHT22;2922;53.482;10.006;2024-01-06T06:55:28;-0.10;99.90
5792;DHT22;2922;53.482;10.006;2024-01-06T06:57:53;-0.10;99.90
5792;DHT22;2922;53.482;10.006;2024-01-06T07:00:19;-0.10;99.90
5792;DHT22;2922;53.482;10.006;2024-01-06T07:02:45;-0.10;99.90
5792;DHT22;2922;53.482;10.006;2024-01-06T07:05:11;-0.10;99.90
5792;DHT22;2922;53.482;10.006;2024-01-06T07:07:36;0.00;99.90
5792;DHT22;2922;53.482;10.006;2024-01-06T07:10:04;-0.10;99.90
5792;DHT22;2922;53.482;10.006;2024-01-06T07:12:30;-0.10;99.90
5792;DHT22;2922;53.482;10.006;2024-01-06T07:14:56;-0.10;99.90
5792;DHT22;2922;53.482;10.006;2024-01-06T07:17:22;0.00;99.90
5792;DHT22;2922;53.482;10.006;2024-01-06T07:19:47;0.00;99.90
5792;DHT22;2922;53.482;10.006;2024-01-06T07:22:14;0.00;99.90
5792;DHT22;2922;53.482;10.006;2024-01-06T07:24:41;-0.10;99.90
5792;DHT22;2922;53.482;10.006;2024-01-06T07:27:07;-0.10;99.90
5792;DHT22;2922;53.482;10.006;2024-01-06T07:29:33;-0.10;99.90
5792;DHT22;2922;53.482;10.006;2024-01-06T07:31:58;-0.10;99.90
5792;DHT22;2922;53.482;10.006;2024-01-06T07:34:24;-0.10;99.90
5792;DHT22;2922;53.482;10.006;2024-01-06T07:36:50;-0.10;99.90
5792;DHT22;2922;53.482;10.006;2024-01-06T07:39:16;-0.10;99.90
5792;DHT22;2922;53.482;10.006;2024-01-06T07:41:42;-0.10;99.90
5792;DHT22;2922;53.482;10.006;2024-01-06T07:44:08;-0.10;99.90
5792;DHT22;2922;53.482;10.006;2024-01-06T07:46:33;-0.10;99.90
5792;DHT22;2922;53.482;10.006;2024-01-06T07:49:00;-0.10;99.90
5792;DHT22;2922;53.482;10.006;2024-01-06T07:51:26;-0.10;99.90
5792;DHT22;2922;53.482;10.006;2024-01-06T07:53:51;-0.10;99.90
5792;DHT22;2922;53.482;10.006;2024-01-06T07:56:17;-0.10;99.90
5792;DHT22;2922;53.482;10.006;2024-01-06T07:58:43;-0.10;99.90
5792;DHT22;2922;53.482;10.006;2024-01-06T08:01:09;-0.10;99.90
5792;DHT22;2922;53.482;10.006;2024-01-06T08:03:34;0.00;99.90
5792;DHT22;2922;53.482;10.006;2024-01-06T08:06:00;-0.10;99.90
5792;DHT22;2922;53.482;10.006;2024-01-06T08:08:26;-0.10;99.90
5792;DHT22;2922;53.482;10.006;2024-01-06T08:10:52;0.00;99.90
5792;DHT22;2922;53.482;10.006;2024-01-06T08:13:17;0.00;99.90
5792;DHT22;2922;53.482;10.006;2024-01-06T08:15:43;0.00;99.90
5792;DHT22;2922;53.482;10.006;2024-01-06T08:18:09;0.00;99.90
5792;DHT22;2922;53.482;10.006;2024-01-06T08:20:34;0.00;99.90
5792;DHT22;2922;53.482;10.006;2024-01-06T08:23:00;0.00;99.90
5792;DHT22;2922;53.482;10.006;2024-01-06T08:25:25;0.00;99.90
5792;DHT22;2922;53.482;10.006;2024-01-06T08:27:51;0.00;99.90
5792;DHT22;2922;53.482;10.006;2024-01-06T08:30:16;0.00;99.90
5792;DHT22;2922;53.482;10.006;2024-01-06T08:32:42;0.00;99.90
5792;DHT22;2922;53.482;10.006;2024-01-06T08:35:09;0.00;99.90
5792;DHT22;2922;53.482;10.006;2024-01-06T08:37:34;0.00;99.90
5792;DHT22;2922;53.482;10.006;2024-01-06T08:40:00;0.00;99.90
5792;DHT22;2922;53.482;10.006;2024-01-06T08:42:26;0.00;99.90
5792;DHT22;2922;53.482;10.006;2024-01-06T08:44:51;0.00;99.90
5792;DHT22;2922;53.482;10.006;2024-01-06T08:47:17;0.00;99.90
5792;DHT22;2922;53.482;10.006;2024-01-06T08:49:43;0.00;99.90
5792;DHT22;2922;53.482;10.006;2024-01-06T08:52:08;0.10;99.90
5792;DHT22;2922;53.482;10.006;2024-01-06T08:54:34;0.00;99.90
5792;DHT22;2922;53.482;10.006;2024-01-06T08:57:00;0.10;99.90
5792;DHT22;2922;53.482;10.006;2024-01-06T08:59:25;0.10;99.90
5792;DHT22;2922;53.482;10.006;2024-01-06T09:01:51;0.10;99.90
5792;DHT22;2922;53.482;10.006;2024-01-06T09:04:18;0.10;99.90
5792;DHT22;2922;53.482;10.006;2024-01-06T09:06:44;0.10;99.90
5792;DHT22;2922;53.482;10.006;2024-01-06T09:09:10;0.10;99.90
5792;DHT22;2922;53.482;10.006;2024-01-06T09:11:36;0.10;99.90
5792;DHT22;2922;53.482;10.006;2024-01-06T09:14:01;0.20;99.90
5792;DHT22;2922;53.482;10.006;2024-01-06T09:16:27;0.20;99.90
5792;DHT22;2922;53.482;10.006;2024-01-06T09:18:53;0.30;99.90
5792;DHT22;2922;53.482;10.006;2024-01-06T09:21:18;0.30;99.90
5792;DHT22;2922;53.482;10.006;2024-01-06T09:23:44;0.30;99.90
5792;DHT22;2922;53.482;10.006;2024-01-06T09:26:10;0.30;99.90
5792;DHT22;2922;53.482;10.006;2024-01-06T09:28:35;0.30;99.90
5792;DHT22;2922;53.482;10.006;2024-01-06T09:31:01;0.30;99.90
5792;DHT22;2922;53.482;10.006;2024-01-06T09:33:27;0.30;99.90
5792;DHT22;2922;53.482;10.006;2024-01-06T09:35:52;0.40;99.90
5792;DHT22;2922;53.482;10.006;2024-01-06T09:38:19;0.40;99.90
5792;DHT22;2922;53.482;10.006;2024-01-06T09:40:44;0.30;99.90
5792;DHT22;2922;53.482;10.006;2024-01-06T09:43:11;0.30;99.90
5792;DHT22;2922;53.482;10.006;2024-01-06T09:45:37;0.30;99.90
5792;DHT22;2922;53.482;10.006;2024-01-06T09:48:12;0.40;99.90
5792;DHT22;2922;53.482;10.006;2024-01-06T09:50:43;0.30;99.90
5792;DHT22;2922;53.482;10.006;2024-01-06T09:53:11;0.40;99.90
5792;DHT22;2922;53.482;10.006;2024-01-06T09:55:37;0.40;99.90
5792;DHT22;2922;53.482;10.006;2024-01-06T09:58:04;0.40;99.90
5792;DHT22;2922;53.482;10.006;2024-01-06T10:00:31;0.40;99.90
5792;DHT22;2922;53.482;10.006;2024-01-06T10:02:57;0.40;99.90
5792;DHT22;2922;53.482;10.006;2024-01-06T10:05:23;0.40;99.90
5792;DHT22;2922;53.482;10.006;2024-01-06T10:07:49;0.40;99.90
5792;DHT22;2922;53.482;10.006;2024-01-06T10:10:15;0.50;99.90
5792;DHT22;2922;53.482;10.006;2024-01-06T10:12:42;0.50;99.90
5792;DHT22;2922;53.482;10.006;2024-01-06T10:15:09;0.50;99.90
5792;DHT22;2922;53.482;10.006;2024-01-06T10:17:38;0.50;99.90
5792;DHT22;2922;53.482;10.006;2024-01-06T10:20:12;0.40;99.90
5792;DHT22;2922;53.482;10.006;2024-01-06T10:22:38;0.50;99.90
5792;DHT22;2922;53.482;10.006;2024-01-06T10:25:06;0.50;99.90
5792;DHT22;2922;53.482;10.006;2024-01-06T10:27:34;0.50;99.90
5792;DHT22;2922;53.482;10.006;2024-01-06T10:30:00;0.50;99.90
5792;DHT22;2922;53.482;10.006;2024-01-06T10:32:31;0.50;99.90
5792;DHT22;2922;53.482;10.006;2024-01-06T10:34:57;0.50;99.90
5792;DHT22;2922;53.482;10.006;2024-01-06T10:37:24;0.50;99.90
5792;DHT22;2922;53.482;10.006;2024-01-06T10:40:14;0.50;99.90
5792;DHT22;2922;53.482;10.006;2024-01-06T10:42:44;0.50;99.90
5792;DHT22;2922;53.482;10.006;2024-01-06T10:45:11;0.50;99.90
5792;DHT22;2922;53.482;10.006;2024-01-06T10:47:40;0.50;99.90
5792;DHT22;2922;53.482;10.006;2024-01-06T10:50:06;0.50;99.90
5792;DHT22;2922;53.482;10.006;2024-01-06T10:52:34;0.50;99.90
5792;DHT22;2922;53.482;10.006;2024-01-06T10:55:03;0.60;99.90
5792;DHT22;2922;53.482;10.006;2024-01-06T10:57:29;0.60;99.90
5792;DHT22;2922;53.482;10.006;2024-01-06T10:59:58;0.60;99.90
5792;DHT22;2922;53.482;10.006;2024-01-06T11:02:24;0.50;99.90
5792;DHT22;2922;53.482;10.006;2024-01-06T11:04:51;0.50;99.90
5792;DHT22;2922;53.482;10.006;2024-01-06T11:07:21;0.50;99.90
5792;DHT22;2922;53.482;10.006;2024-01-06T11:12:17;0.50;99.90
5792;DHT22;2922;53.482;10.006;2024-01-06T11:14:43;0.50;99.90
5792;DHT22;2922;53.482;10.006;2024-01-06T11:17:08;0.50;99.90
5792;DHT22;2922;53.482;10.006;2024-01-06T11:22:38;0.50;99.90
5792;DHT22;2922;53.482;10.006;2024-01-06T11:25:13;0.60;99.90
5792;DHT22;2922;53.482;10.006;2024-01-06T11:27:39;0.60;99.90
5792;DHT22;2922;53.482;10.006;2024-01-06T11:30:07;0.60;99.90
5792;DHT22;2922;53.482;10.006;2024-01-06T11:32:35;0.60;99.90
5792;DHT22;2922;53.482;10.006;2024-01-06T11:35:07;0.60;99.90
5792;DHT22;2922;53.482;10.006;2024-01-06T11:42:52;0.60;99.90
5792;DHT22;2922;53.482;10.006;2024-01-06T11:45:21;0.60;99.90
5792;DHT22;2922;53.482;10.006;2024-01-06T11:47:50;0.60;99.90
5792;DHT22;2922;53.482;10.006;2024-01-06T11:50:19;0.60;99.90
5792;DHT22;2922;53.482;10.006;2024-01-06T11:52:45;0.60;99.90
5792;DHT22;2922;53.482;10.006;2024-01-06T11:55:11;0.60;99.90
5792;DHT22;2922;53.482;10.006;2024-01-06T11:57:36;0.60;99.90
5792;DHT22;2922;53.482;10.006;2024-01-06T12:00:02;0.70;99.90
5792;DHT22;2922;53.482;10.006;2024-01-06T12:02:29;0.60;99.90
5792;DHT22;2922;53.482;10.006;2024-01-06T12:04:55;0.60;99.90
5792;DHT22;2922;53.482;10.006;2024-01-06T12:07:21;0.70;99.90
5792;DHT22;2922;53.482;10.006;2024-01-06T12:10:03;0.60;99.90
5792;DHT22;2922;53.482;10.006;2024-01-06T12:12:29;0.70;99.90
5792;DHT22;2922;53.482;10.006;2024-01-06T12:14:54;0.60;99.90
5792;DHT22;2922;53.482;10.006;2024-01-06T12:17:21;0.70;99.90
5792;DHT22;2922;53.482;10.006;2024-01-06T12:19:47;0.70;99.90
5792;DHT22;2922;53.482;10.006;2024-01-06T12:22:15;0.70;99.90
5792;DHT22;2922;53.482;10.006;2024-01-06T12:24:42;0.70;99.90
5792;DHT22;2922;53.482;10.006;2024-01-06T12:27:09;0.70;99.90
5792;DHT22;2922;53.482;10.006;2024-01-06T12:29:38;0.60;99.90
5792;DHT22;2922;53.482;10.006;2024-01-06T12:32:05;0.70;99.90
5792;DHT22;2922;53.482;10.006;2024-01-06T12:34:31;0.60;99.90
5792;DHT22;2922;53.482;10.006;2024-01-06T12:36:56;0.60;99.90
5792;DHT22;2922;53.482;10.006;2024-01-06T12:39:22;0.50;99.90
5792;DHT22;2922;53.482;10.006;2024-01-06T12:41:51;0.60;99.90
5792;DHT22;2922;53.482;10.006;2024-01-06T12:44:17;0.50;99.90
5792;DHT22;2922;53.482;10.006;2024-01-06T12:46:42;0.50;99.90
5792;DHT22;2922;53.482;10.006;2024-01-06T12:49:08;0.60;99.90
5792;DHT22;2922;53.482;10.006;2024-01-06T12:51:34;0.60;99.90
5792;DHT22;2922;53.482;10.006;2024-01-06T12:54:00;0.60;99.90
5792;DHT22;2922;53.482;10.006;2024-01-06T12:56:25;0.60;99.90
5792;DHT22;2922;53.482;10.006;2024-01-06T12:58:51;0.70;99.90
5792;DHT22;2922;53.482;10.006;2024-01-06T13:01:17;0.60;99.90
5792;DHT22;2922;53.482;10.006;2024-01-06T13:03:44;0.70;99.90
5792;DHT22;2922;53.482;10.006;2024-01-06T13:06:10;0.60;99.90
5792;DHT22;2922;53.482;10.006;2024-01-06T13:08:36;0.60;99.90
5792;DHT22;2922;53.482;10.006;2024-01-06T13:11:02;0.60;99.90
5792;DHT22;2922;53.482;10.006;2024-01-06T13:13:28;0.60;99.90
5792;DHT22;2922;53.482;10.006;2024-01-06T13:15:56;0.60;99.90
5792;DHT22;2922;53.482;10.006;2024-01-06T13:18:22;0.60;99.90
5792;DHT22;2922;53.482;10.006;2024-01-06T13:20:47;0.50;99.90
5792;DHT22;2922;53.482;10.006;2024-01-06T13:23:13;0.50;99.90
5792;DHT22;2922;53.482;10.006;2024-01-06T13:25:39;0.60;99.90
5792;DHT22;2922;53.482;10.006;2024-01-06T13:28:06;0.50;99.90
5792;DHT22;2922;53.482;10.006;2024-01-06T13:30:32;0.60;99.90
5792;DHT22;2922;53.482;10.006;2024-01-06T13:32:58;0.50;99.90
5792;DHT22;2922;53.482;10.006;2024-01-06T13:35:24;0.50;99.90
5792;DHT22;2922;53.482;10.006;2024-01-06T13:37:51;0.50;99.90
5792;DHT22;2922;53.482;10.006;2024-01-06T13:40:17;0.50;99.90
5792;DHT22;2922;53.482;10.006;2024-01-06T13:42:46;0.50;99.90
5792;DHT22;2922;53.482;10.006;2024-01-06T13:45:12;0.50;99.90
5792;DHT22;2922;53.482;10.006;2024-01-06T13:47:38;0.40;99.90
5792;DHT22;2922;53.482;10.006;2024-01-06T13:50:08;0.50;99.90
5792;DHT22;2922;53.482;10.006;2024-01-06T13:52:33;0.40;99.90
5792;DHT22;2922;53.482;10.006;2024-01-06T13:55:00;0.40;99.90
5792;DHT22;2922;53.482;10.006;2024-01-06T13:57:26;0.40;99.90
5792;DHT22;2922;53.482;10.006;2024-01-06T13:59:51;0.40;99.90
5792;DHT22;2922;53.482;10.006;2024-01-06T14:02:17;0.40;99.90
5792;DHT22;2922;53.482;10.006;2024-01-06T14:04:43;0.40;99.90
5792;DHT22;2922;53.482;10.006;2024-01-06T14:07:08;0.40;99.90
5792;DHT22;2922;53.482;10.006;2024-01-06T14:09:36;0.40;99.90
5792;DHT22;2922;53.482;10.006;2024-01-06T14:12:01;0.40;99.90
5792;DHT22;2922;53.482;10.006;2024-01-06T14:14:27;0.40;99.90
5792;DHT22;2922;53.482;10.006;2024-01-06T16:23:37;-0.40;99.90
5792;DHT22;2922;53.482;10.006;2024-01-06T16:26:03;-0.40;99.90
5792;DHT22;2922;53.482;10.006;2024-01-06T16:28:29;-0.30;99.90
5792;DHT22;2922;53.482;10.006;2024-01-06T16:30:54;-0.30;99.90
5792;DHT22;2922;53.482;10.006;2024-01-06T16:33:20;-0.30;99.90
5792;DHT22;2922;53.482;10.006;2024-01-06T16:35:45;-0.40;99.90
5792;DHT22;2922;53.482;10.006;2024-01-06T16:38:12;-0.40;99.90
5792;DHT22;2922;53.482;10.006;2024-01-06T16:40:38;-0.40;99.90
5792;DHT22;2922;53.482;10.006;2024-01-06T16:43:04;-0.40;99.90
5792;DHT22;2922;53.482;10.006;2024-01-06T16:45:29;-0.40;99.90
5792;DHT22;2922;53.482;10.006;2024-01-06T16:47:56;-0.40;99.90
5792;DHT22;2922;53.482;10.006;2024-01-06T16:50:22;-0.40;99.90
5792;DHT22;2922;53.482;10.006;2024-01-06T16:52:47;-0.40;99.90
5792;DHT22;2922;53.482;10.006;2024-01-06T16:55:13;-0.40;99.90
5792;DHT22;2922;53.482;10.006;2024-01-06T16:57:39;-0.40;99.90
5792;DHT22;2922;53.482;10.006;2024-01-06T17:00:05;-0.40;99.90
5792;DHT22;2922;53.482;10.006;2024-01-06T17:02:30;-0.40;99.90
5792;DHT22;2922;53.482;10.006;2024-01-06T17:04:56;-0.50;99.90
5792;DHT22;2922;53.482;10.006;2024-01-06T17:07:22;-0.50;99.90
5792;DHT22;2922;53.482;10.006;2024-01-06T17:09:48;-0.50;99.90
5792;DHT22;2922;53.482;10.006;2024-01-06T17:12:15;-0.50;99.90
5792;DHT22;2922;53.482;10.006;2024-01-06T17:14:41;-0.50;99.90
5792;DHT22;2922;53.482;10.006;2024-01-06T17:17:07;-0.50;99.90
5792;DHT22;2922;53.482;10.006;2024-01-06T17:19:32;-0.50;99.90
5792;DHT22;2922;53.482;10.006;2024-01-06T17:21:58;-0.50;99.90
5792;DHT22;2922;53.482;10.006;2024-01-06T17:24:24;-0.50;99.90
5792;DHT22;2922;53.482;10.006;2024-01-06T17:26:52;-0.50;99.90
5792;DHT22;2922;53.482;10.006;2024-01-06T17:29:18;-0.50;99.90
5792;DHT22;2922;53.482;10.006;2024-01-06T17:31:44;-0.50;99.90
5792;DHT22;2922;53.482;10.006;2024-01-06T17:34:09;-0.50;99.90
5792;DHT22;2922;53.482;10.006;2024-01-06T17:36:36;-0.50;99.90
5792;DHT22;2922;53.482;10.006;2024-01-06T17:39:02;-0.50;99.90
5792;DHT22;2922;53.482;10.006;2024-01-06T17:41:28;-0.50;99.90
5792;DHT22;2922;53.482;10.006;2024-01-06T17:43:54;-0.50;99.90
5792;DHT22;2922;53.482;10.006;2024-01-06T17:46:23;-0.50;99.90
5792;DHT22;2922;53.482;10.006;2024-01-06T17:48:51;-0.50;99.90
5792;DHT22;2922;53.482;10.006;2024-01-06T17:51:17;-0.50;99.90
5792;DHT22;2922;53.482;10.006;2024-01-06T17:53:45;-0.50;99.90
5792;DHT22;2922;53.482;10.006;2024-01-06T17:56:10;-0.40;99.90
5792;DHT22;2922;53.482;10.006;2024-01-06T17:58:36;-0.50;99.90
5792;DHT22;2922;53.482;10.006;2024-01-06T18:01:01;-0.50;99.90
5792;DHT22;2922;53.482;10.006;2024-01-06T18:03:27;-0.50;99.90
5792;DHT22;2922;53.482;10.006;2024-01-06T18:05:52;-0.50;99.90
5792;DHT22;2922;53.482;10.006;2024-01-06T18:08:18;-0.50;99.90
5792;DHT22;2922;53.482;10.006;2024-01-06T18:10:44;-0.50;99.90
5792;DHT22;2922;53.482;10.006;2024-01-06T18:13:10;-0.50;99.90
5792;DHT22;2922;53.482;10.006;2024-01-06T18:15:35;-0.50;99.90
5792;DHT22;2922;53.482;10.006;2024-01-06T18:18:01;-0.50;99.90
5792;DHT22;2922;53.482;10.006;2024-01-06T18:20:26;-0.50;99.90
5792;DHT22;2922;53.482;10.006;2024-01-06T18:22:52;-0.50;99.90
5792;DHT22;2922;53.482;10.006;2024-01-06T18:25:18;-0.50;99.90
5792;DHT22;2922;53.482;10.006;2024-01-06T18:27:43;-0.50;99.90
5792;DHT22;2922;53.482;10.006;2024-01-06T18:30:11;-0.50;99.90
5792;DHT22;2922;53.482;10.006;2024-01-06T18:32:36;-0.50;99.90
5792;DHT22;2922;53.482;10.006;2024-01-06T18:35:02;-0.50;99.90
5792;DHT22;2922;53.482;10.006;2024-01-06T18:37:28;-0.50;99.90
5792;DHT22;2922;53.482;10.006;2024-01-06T18:39:53;-0.50;99.90
5792;DHT22;2922;53.482;10.006;2024-01-06T18:42:19;-0.50;99.90
5792;DHT22;2922;53.482;10.006;2024-01-06T18:44:48;-0.50;99.90
5792;DHT22;2922;53.482;10.006;2024-01-06T18:47:13;-0.50;99.90
5792;DHT22;2922;53.482;10.006;2024-01-06T18:49:40;-0.40;99.90
5792;DHT22;2922;53.482;10.006;2024-01-06T18:52:06;-0.50;99.90
5792;DHT22;2922;53.482;10.006;2024-01-06T18:54:32;-0.40;99.90
5792;DHT22;2922;53.482;10.006;2024-01-06T18:57:00;-0.40;99.90
5792;DHT22;2922;53.482;10.006;2024-01-06T18:59:26;-0.50;99.90
5792;DHT22;2922;53.482;10.006;2024-01-06T19:01:52;-0.50;99.90
5792;DHT22;2922;53.482;10.006;2024-01-06T19:04:17;-0.50;99.90
5792;DHT22;2922;53.482;10.006;2024-01-06T19:06:45;-0.50;99.90
5792;DHT22;2922;53.482;10.006;2024-01-06T19:09:11;-0.50;99.90
5792;DHT22;2922;53.482;10.006;2024-01-06T19:11:39;-0.50;99.90
5792;DHT22;2922;53.482;10.006;2024-01-06T19:14:05;-0.50;99.90
5792;DHT22;2922;53.482;10.006;2024-01-06T19:16:31;-0.50;99.90
5792;DHT22;2922;53.482;10.006;2024-01-06T19:18:57;-0.50;99.90
5792;DHT22;2922;53.482;10.006;2024-01-06T19:21:22;-0.40;99.90
5792;DHT22;2922;53.482;10.006;2024-01-06T19:23:48;-0.40;99.90
5792;DHT22;2922;53.482;10.006;2024-01-06T19:26:13;-0.50;99.90
5792;DHT22;2922;53.482;10.006;2024-01-06T19:28:39;-0.40;99.90
5792;DHT22;2922;53.482;10.006;2024-01-06T19:31:05;-0.40;99.90
5792;DHT22;2922;53.482;10.006;2024-01-06T19:33:30;-0.40;99.90
5792;DHT22;2922;53.482;10.006;2024-01-06T19:35:56;-0.40;99.90
5792;DHT22;2922;53.482;10.006;2024-01-06T19:38:22;-0.40;99.90
5792;DHT22;2922;53.482;10.006;2024-01-06T19:40:48;-0.40;99.90
5792;DHT22;2922;53.482;10.006;2024-01-06T19:43:13;-0.40;99.90
5792;DHT22;2922;53.482;10.006;2024-01-06T19:45:41;-0.40;99.90
5792;DHT22;2922;53.482;10.006;2024-01-06T19:48:07;-0.40;99.90
5792;DHT22;2922;53.482;10.006;2024-01-06T19:50:32;-0.40;99.90
5792;DHT22;2922;53.482;10.006;2024-01-06T19:52:58;-0.40;99.90
5792;DHT22;2922;53.482;10.006;2024-01-06T19:55:23;-0.40;99.90
5792;DHT22;2922;53.482;10.006;2024-01-06T19:57:49;-0.40;99.90
5792;DHT22;2922;53.482;10.006;2024-01-06T20:00:15;-0.40;99.90
5792;DHT22;2922;53.482;10.006;2024-01-06T20:02:41;-0.40;99.90
5792;DHT22;2922;53.482;10.006;2024-01-06T20:05:07;-0.50;99.90
5792;DHT22;2922;53.482;10.006;2024-01-06T20:07:33;-0.50;99.90
5792;DHT22;2922;53.482;10.006;2024-01-06T20:10:00;-0.50;99.90
5792;DHT22;2922;53.482;10.006;2024-01-06T20:12:25;-0.50;99.90
5792;DHT22;2922;53.482;10.006;2024-01-06T20:14:51;-0.50;99.90
5792;DHT22;2922;53.482;10.006;2024-01-06T20:17:21;-0.50;99.90
5792;DHT22;2922;53.482;10.006;2024-01-06T20:19:47;-0.50;99.90
5792;DHT22;2922;53.482;10.006;2024-01-06T20:22:15;-0.50;99.90